sensor_id;sensor_type;location;lat;lon;timestamp;pressure;altitude;pressure_sealevel;temperature;humidity
68871;BME280;55906;52.278;6.808;2022-11-15T00:00:25;100813.97;;;9.71;74.08
68871;BME280;55906;52.278;6.808;2022-11-15T00:02:52;100815.03;;;9.78;73.60
68871;BME280;55906;52.278;6.808;2022-11-15T00:05:18;100813.13;;;9.72;74.18
68871;BME280;55906;52.278;6.808;2022-11-15T00:07:45;100808.81;;;9.74;74.26
68871;BME280;55906;52.278;6.808;2022-11-15T00:10:13;100818.44;;;9.74;75.32
68871;BME280;55906;52.278;6.808;2022-11-15T00:12:40;100806.91;;;9.69;76.65
68871;BME280;55906;52.278;6.808;2022-11-15T00:15:07;100799.88;;;9.68;77.02
68871;BME280;55906;52.278;6.808;2022-11-15T00:17:34;100806.69;;;9.61;77.69
68871;BME280;55906;52.278;6.808;2022-11-15T00:20:00;100799.59;;;9.58;78.42
68871;BME280;55906;52.278;6.808;2022-11-15T00:22:31;100798.81;;;9.61;78.16
68871;BME280;55906;52.278;6.808;2022-11-15T00:24:58;100799.66;;;9.60;78.80
68871;BME280;55906;52.278;6.808;2022-11-15T00:27:26;100798.75;;;9.59;78.71
68871;BME280;55906;52.278;6.808;2022-11-15T00:29:52;100785.47;;;9.53;79.29
68871;BME280;55906;52.278;6.808;2022-11-15T00:32:19;100787.38;;;9.59;79.13
68871;BME280;55906;52.278;6.808;2022-11-15T00:34:46;100787.31;;;9.57;79.53
68871;BME280;55906;52.278;6.808;2022-11-15T00:37:12;100777.66;;;9.56;79.98
68871;BME280;55906;52.278;6.808;2022-11-15T00:39:39;100786.44;;;9.57;81.11
68871;BME280;55906;52.278;6.808;2022-11-15T00:42:05;100787.38;;;9.59;80.86
68871;BME280;55906;52.278;6.808;2022-11-15T00:44:33;100783.84;;;9.58;81.35
68871;BME280;55906;52.278;6.808;2022-11-15T00:47:00;100782.13;;;9.59;81.76
68871;BME280;55906;52.278;6.808;2022-11-15T00:49:26;100791.06;;;9.66;82.21
68871;BME280;55906;52.278;6.808;2022-11-15T00:51:53;100779.53;;;9.60;83.31
68871;BME280;55906;52.278;6.808;2022-11-15T00:54:19;100777.72;;;9.58;84.02
68871;BME280;55906;52.278;6.808;2022-11-15T00:56:46;100768.97;;;9.59;84.01
68871;BME280;55906;52.278;6.808;2022-11-15T00:59:12;100768.97;;;9.59;84.99
68871;BME280;55906;52.278;6.808;2022-11-15T01:01:40;100767.25;;;9.59;85.49
68871;BME280;55906;52.278;6.808;2022-11-15T01:04:07;100764.50;;;9.55;86.55
68871;BME280;55906;52.278;6.808;2022-11-15T01:06:33;100751.41;;;9.56;86.24
68871;BME280;55906;52.278;6.808;2022-11-15T01:09:00;100750.44;;;9.53;87.17
68871;BME280;55906;52.278;6.808;2022-11-15T01:11:27;100752.28;;;9.57;87.15
68871;BME280;55906;52.278;6.808;2022-11-15T01:13:54;100754.13;;;9.59;86.65
68871;BME280;55906;52.278;6.808;2022-11-15T01:16:21;100745.34;;;9.59;86.80
68871;BME280;55906;52.278;6.808;2022-11-15T01:18:50;100743.63;;;9.59;86.96
68871;BME280;55906;52.278;6.808;2022-11-15T01:21:18;100742.84;;;9.63;86.76
68871;BME280;55906;52.278;6.808;2022-11-15T01:23:45;100744.59;;;9.63;87.27
68871;BME280;55906;52.278;6.808;2022-11-15T01:26:13;100741.25;;;9.69;87.52
68871;BME280;55906;52.278;6.808;2022-11-15T01:28:41;100744.78;;;9.71;86.57
68871;BME280;55906;52.278;6.808;2022-11-15T01:31:12;100738.72;;;9.73;87.43
68871;BME280;55906;52.278;6.808;2022-11-15T01:33:39;100737.13;;;9.78;87.18
68871;BME280;55906;52.278;6.808;2022-11-15T01:36:10;100738.91;;;9.79;87.63
68871;BME280;55906;52.278;6.808;2022-11-15T01:38:37;100732.88;;;9.83;87.86
68871;BME280;55906;52.278;6.808;2022-11-15T01:41:04;100727.75;;;9.88;88.17
68871;BME280;55906;52.278;6.808;2022-11-15T01:43:32;100725.31;;;9.95;87.38
68871;BME280;55906;52.278;6.808;2022-11-15T01:46:02;100721.88;;;9.98;87.86
68871;BME280;55906;52.278;6.808;2022-11-15T01:48:33;100728.06;;;10.00;88.45
68871;BME280;55906;52.278;6.808;2022-11-15T01:51:01;100720.25;;;10.03;88.75
68871;BME280;55906;52.278;6.808;2022-11-15T01:53:32;100716.88;;;10.09;87.75
68871;BME280;55906;52.278;6.808;2022-11-15T01:56:02;100710.78;;;10.10;88.81
68871;BME280;55906;52.278;6.808;2022-11-15T01:58:30;100711.72;;;10.12;88.78
68871;BME280;55906;52.278;6.808;2022-11-15T02:00:58;100724.88;;;10.13;88.29
68871;BME280;55906;52.278;6.808;2022-11-15T02:03:31;100725.03;;;10.19;87.88
68871;BME280;55906;52.278;6.808;2022-11-15T02:05:59;100726.75;;;10.17;88.55
68871;BME280;55906;52.278;6.808;2022-11-15T02:08:26;100716.38;;;10.22;88.21
68871;BME280;55906;52.278;6.808;2022-11-15T02:10:54;100716.53;;;10.28;87.93
68871;BME280;55906;52.278;6.808;2022-11-15T02:13:21;100713.94;;;10.30;88.71
68871;BME280;55906;52.278;6.808;2022-11-15T02:15:57;100705.28;;;10.34;88.15
68871;BME280;55906;52.278;6.808;2022-11-15T02:18:28;100700.97;;;10.37;88.28
68871;BME280;55906;52.278;6.808;2022-11-15T02:21:09;100703.63;;;10.39;88.74
68871;BME280;55906;52.278;6.808;2022-11-15T02:24:19;100689.59;;;10.38;88.63
68871;BME280;55906;52.278;6.808;2022-11-15T02:27:09;100691.47;;;10.42;88.90
68871;BME280;55906;52.278;6.808;2022-11-15T02:30:00;100695.00;;;10.43;89.11
68871;BME280;55906;52.278;6.808;2022-11-15T02:32:35;100705.59;;;10.46;89.12
68871;BME280;55906;52.278;6.808;2022-11-15T02:35:12;100700.47;;;10.52;88.91
68871;BME280;55906;52.278;6.808;2022-11-15T02:37:45;100698.78;;;10.54;88.41
68871;BME280;55906;52.278;6.808;2022-11-15T02:40:19;100700.53;;;10.55;88.96
68871;BME280;55906;52.278;6.808;2022-11-15T02:42:53;100687.47;;;10.58;88.83
68871;BME280;55906;52.278;6.808;2022-11-15T02:45:41;100692.88;;;10.64;88.65
68871;BME280;55906;52.278;6.808;2022-11-15T02:48:12;100697.22;;;10.64;88.61
68871;BME280;55906;52.278;6.808;2022-11-15T02:50:39;100687.53;;;10.61;89.18
68871;BME280;55906;52.278;6.808;2022-11-15T02:53:07;100693.78;;;10.66;89.15
68871;BME280;55906;52.278;6.808;2022-11-15T02:55:35;100691.25;;;10.71;89.04
68871;BME280;55906;52.278;6.808;2022-11-15T02:58:15;100682.69;;;10.79;88.75
68871;BME280;55906;52.278;6.808;2022-11-15T03:00:50;100687.94;;;10.79;88.87
68871;BME280;55906;52.278;6.808;2022-11-15T03:03:42;100681.94;;;10.86;88.53
68871;BME280;55906;52.278;6.808;2022-11-15T03:06:20;100680.28;;;10.90;88.58
68871;BME280;55906;52.278;6.808;2022-11-15T03:08:57;100676.78;;;10.91;88.74
68871;BME280;55906;52.278;6.808;2022-11-15T03:11:25;100682.16;;;10.96;87.91
68871;BME280;55906;52.278;6.808;2022-11-15T03:13:57;100682.25;;;11.00;87.68
68871;BME280;55906;52.278;6.808;2022-11-15T03:16:28;100675.25;;;11.02;87.88
68871;BME280;55906;52.278;6.808;2022-11-15T03:19:02;100675.44;;;11.10;88.02
68871;BME280;55906;52.278;6.808;2022-11-15T03:21:33;100678.13;;;11.13;87.59
68871;BME280;55906;52.278;6.808;2022-11-15T03:24:03;100670.31;;;11.17;87.81
68871;BME280;55906;52.278;6.808;2022-11-15T03:26:32;100669.53;;;11.21;87.27
68871;BME280;55906;52.278;6.808;2022-11-15T03:29:03;100673.16;;;11.28;86.69
68871;BME280;55906;52.278;6.808;2022-11-15T03:31:33;100665.31;;;11.31;86.82
68871;BME280;55906;52.278;6.808;2022-11-15T03:34:19;100653.94;;;11.32;86.50
68871;BME280;55906;52.278;6.808;2022-11-15T03:36:49;100657.50;;;11.36;86.58
68871;BME280;55906;52.278;6.808;2022-11-15T03:39:18;100661.03;;;11.36;86.63
68871;BME280;55906;52.278;6.808;2022-11-15T03:41:48;100659.44;;;11.44;85.90
68871;BME280;55906;52.278;6.808;2022-11-15T03:44:25;100662.09;;;11.46;86.26
68871;BME280;55906;52.278;6.808;2022-11-15T03:47:01;100664.75;;;11.47;85.86
68871;BME280;55906;52.278;6.808;2022-11-15T03:49:32;100663.03;;;11.49;86.10
68871;BME280;55906;52.278;6.808;2022-11-15T03:52:00;100664.81;;;11.50;85.76
68871;BME280;55906;52.278;6.808;2022-11-15T03:54:28;100665.72;;;11.52;86.21
68871;BME280;55906;52.278;6.808;2022-11-15T03:56:54;100663.16;;;11.55;86.03
68871;BME280;55906;52.278;6.808;2022-11-15T03:59:21;100657.09;;;11.61;85.33
68871;BME280;55906;52.278;6.808;2022-11-15T04:01:47;100664.13;;;11.61;85.33
68871;BME280;55906;52.278;6.808;2022-11-15T04:04:14;100655.31;;;11.60;86.10
68871;BME280;55906;52.278;6.808;2022-11-15T04:06:42;100653.59;;;11.62;85.82
68871;BME280;55906;52.278;6.808;2022-11-15T04:09:09;100658.09;;;11.68;85.36
68871;BME280;55906;52.278;6.808;2022-11-15T04:11:35;100658.19;;;11.71;85.41
68871;BME280;55906;52.278;6.808;2022-11-15T04:14:02;100648.56;;;11.73;85.45
68871;BME280;55906;52.278;6.808;2022-11-15T04:16:28;100653.00;;;11.75;85.51
68871;BME280;55906;52.278;6.808;2022-11-15T04:18:55;100653.03;;;11.77;85.58
68871;BME280;55906;52.278;6.808;2022-11-15T04:21:35;100645.22;;;11.81;85.23
68871;BME280;55906;52.278;6.808;2022-11-15T04:24:21;100649.66;;;11.84;85.04
68871;BME280;55906;52.278;6.808;2022-11-15T04:26:47;100648.81;;;11.85;85.19
68871;BME280;55906;52.278;6.808;2022-11-15T04:29:14;100654.13;;;11.88;85.50
68871;BME280;55906;52.278;6.808;2022-11-15T04:31:59;100645.44;;;11.94;85.28
68871;BME280;55906;52.278;6.808;2022-11-15T04:34:25;100647.22;;;11.95;85.24
68871;BME280;55906;52.278;6.808;2022-11-15T04:36:52;100657.81;;;11.98;85.25
68871;BME280;55906;52.278;6.808;2022-11-15T04:39:36;100650.00;;;12.04;84.71
68871;BME280;55906;52.278;6.808;2022-11-15T04:42:03;100657.00;;;12.03;84.92
68871;BME280;55906;52.278;6.808;2022-11-15T04:44:30;100652.69;;;12.08;85.17
68871;BME280;55906;52.278;6.808;2022-11-15T04:46:56;100655.38;;;12.11;85.12
68871;BME280;55906;52.278;6.808;2022-11-15T04:49:23;100654.56;;;12.15;84.87
68871;BME280;55906;52.278;6.808;2022-11-15T04:51:50;100665.09;;;12.14;85.18
68871;BME280;55906;52.278;6.808;2022-11-15T04:54:16;100666.03;;;12.17;84.79
68871;BME280;55906;52.278;6.808;2022-11-15T04:56:44;100659.94;;;12.22;84.76
68871;BME280;55906;52.278;6.808;2022-11-15T04:59:11;100666.19;;;12.27;84.58
68871;BME280;55906;52.278;6.808;2022-11-15T05:01:37;100667.94;;;12.28;84.87
68871;BME280;55906;52.278;6.808;2022-11-15T05:04:04;100663.53;;;12.27;85.29
68871;BME280;55906;52.278;6.808;2022-11-15T05:06:45;100664.47;;;12.30;84.52
68871;BME280;55906;52.278;6.808;2022-11-15T05:09:13;100669.81;;;12.35;84.12
68871;BME280;55906;52.278;6.808;2022-11-15T05:11:40;100669.81;;;12.35;84.92
68871;BME280;55906;52.278;6.808;2022-11-15T05:14:08;100670.75;;;12.38;85.15
68871;BME280;55906;52.278;6.808;2022-11-15T05:16:34;100668.97;;;12.36;84.74
68871;BME280;55906;52.278;6.808;2022-11-15T05:19:01;100661.13;;;12.42;84.91
68871;BME280;55906;52.278;6.808;2022-11-15T05:21:28;100663.81;;;12.45;84.49
68871;BME280;55906;52.278;6.808;2022-11-15T05:23:55;100663.81;;;12.45;84.77
68871;BME280;55906;52.278;6.808;2022-11-15T05:26:22;100648.00;;;12.46;84.35
68871;BME280;55906;52.278;6.808;2022-11-15T05:28:52;100659.50;;;12.50;84.37
68871;BME280;55906;52.278;6.808;2022-11-15T05:31:20;100649.84;;;12.52;84.45
68871;BME280;55906;52.278;6.808;2022-11-15T05:33:49;100643.72;;;12.53;84.37
68871;BME280;55906;52.278;6.808;2022-11-15T05:36:18;100642.88;;;12.56;84.60
68871;BME280;55906;52.278;6.808;2022-11-15T05:38:48;100641.97;;;12.55;84.69
68871;BME280;55906;52.278;6.808;2022-11-15T05:41:17;100636.69;;;12.55;84.72
68871;BME280;55906;52.278;6.808;2022-11-15T05:43:46;100642.88;;;12.57;84.94
68871;BME280;55906;52.278;6.808;2022-11-15T05:46:14;100647.28;;;12.57;85.40
68871;BME280;55906;52.278;6.808;2022-11-15T05:48:46;100642.06;;;12.61;85.19
68871;BME280;55906;52.278;6.808;2022-11-15T05:51:15;100641.16;;;12.59;85.13
68871;BME280;55906;52.278;6.808;2022-11-15T05:53:43;100629.66;;;12.54;85.94
68871;BME280;55906;52.278;6.808;2022-11-15T05:56:11;100644.63;;;12.55;85.62
68871;BME280;55906;52.278;6.808;2022-11-15T05:58:38;100647.25;;;12.55;86.63
68871;BME280;55906;52.278;6.808;2022-11-15T06:01:05;100645.53;;;12.57;86.72
68871;BME280;55906;52.278;6.808;2022-11-15T06:03:31;100642.03;;;12.58;86.77
68871;BME280;55906;52.278;6.808;2022-11-15T06:06:00;100653.44;;;12.57;86.89
68871;BME280;55906;52.278;6.808;2022-11-15T06:08:27;100656.03;;;12.54;87.75
68871;BME280;55906;52.278;6.808;2022-11-15T06:10:53;100650.81;;;12.57;87.60
68871;BME280;55906;52.278;6.808;2022-11-15T06:13:20;100659.59;;;12.56;88.38
68871;BME280;55906;52.278;6.808;2022-11-15T06:15:46;100661.34;;;12.56;87.92
68871;BME280;55906;52.278;6.808;2022-11-15T06:18:13;100656.97;;;12.58;88.28
68871;BME280;55906;52.278;6.808;2022-11-15T06:20:40;100652.53;;;12.55;89.15
68871;BME280;55906;52.278;6.808;2022-11-15T06:23:08;100658.69;;;12.56;89.51
68871;BME280;55906;52.278;6.808;2022-11-15T06:25:34;100672.72;;;12.52;89.42
68871;BME280;55906;52.278;6.808;2022-11-15T06:28:01;100662.16;;;12.52;90.19
68871;BME280;55906;52.278;6.808;2022-11-15T06:30:27;100666.53;;;12.51;90.76
68871;BME280;55906;52.278;6.808;2022-11-15T06:32:59;100669.13;;;12.46;91.02
68871;BME280;55906;52.278;6.808;2022-11-15T06:35:26;100666.50;;;12.48;90.79
68871;BME280;55906;52.278;6.808;2022-11-15T06:37:53;100665.56;;;12.44;90.61
68871;BME280;55906;52.278;6.808;2022-11-15T06:40:21;100663.78;;;12.43;91.98
68871;BME280;55906;52.278;6.808;2022-11-15T06:42:47;100673.41;;;12.40;92.18
68871;BME280;55906;52.278;6.808;2022-11-15T06:45:14;100662.88;;;12.40;91.93
68871;BME280;55906;52.278;6.808;2022-11-15T06:47:44;100666.38;;;12.39;92.35
68871;BME280;55906;52.278;6.808;2022-11-15T06:50:11;100669.81;;;12.35;92.60
68871;BME280;55906;52.278;6.808;2022-11-15T06:52:37;100671.63;;;12.39;92.53
68871;BME280;55906;52.278;6.808;2022-11-15T06:55:05;100677.84;;;12.41;92.09
68871;BME280;55906;52.278;6.808;2022-11-15T06:57:33;100680.41;;;12.38;92.75
68871;BME280;55906;52.278;6.808;2022-11-15T07:00:00;100683.97;;;12.40;92.67
68871;BME280;55906;52.278;6.808;2022-11-15T07:02:27;100683.94;;;12.38;92.60
68871;BME280;55906;52.278;6.808;2022-11-15T07:04:54;100693.59;;;12.38;93.11
68871;BME280;55906;52.278;6.808;2022-11-15T07:07:20;100686.63;;;12.41;92.74
68871;BME280;55906;52.278;6.808;2022-11-15T07:09:47;100695.44;;;12.42;92.52
68871;BME280;55906;52.278;6.808;2022-11-15T07:12:13;100698.06;;;12.42;93.33
68871;BME280;55906;52.278;6.808;2022-11-15T07:14:41;100696.38;;;12.45;92.47
68871;BME280;55906;52.278;6.808;2022-11-15T07:17:08;100698.97;;;12.44;92.96
68871;BME280;55906;52.278;6.808;2022-11-15T07:19:34;100697.22;;;12.44;93.19
68871;BME280;55906;52.278;6.808;2022-11-15T07:22:01;100701.66;;;12.47;93.10
68871;BME280;55906;52.278;6.808;2022-11-15T07:24:28;100698.13;;;12.46;92.92
68871;BME280;55906;52.278;6.808;2022-11-15T07:26:54;100694.69;;;12.50;92.20
68871;BME280;55906;52.278;6.808;2022-11-15T07:29:21;100699.09;;;12.52;92.53
68871;BME280;55906;52.278;6.808;2022-11-15T07:31:49;100690.28;;;12.49;93.10
68871;BME280;55906;52.278;6.808;2022-11-15T07:34:16;100692.00;;;12.47;93.17
68871;BME280;55906;52.278;6.808;2022-11-15T07:36:42;100701.75;;;12.52;93.33
68871;BME280;55906;52.278;6.808;2022-11-15T07:39:09;100696.53;;;12.56;92.47
68871;BME280;55906;52.278;6.808;2022-11-15T07:41:37;100701.75;;;12.52;93.74
68871;BME280;55906;52.278;6.808;2022-11-15T07:44:04;100697.31;;;12.49;93.79
68871;BME280;55906;52.278;6.808;2022-11-15T07:46:31;100706.16;;;12.54;93.39
68871;BME280;55906;52.278;6.808;2022-11-15T07:48:59;100706.19;;;12.56;93.61
68871;BME280;55906;52.278;6.808;2022-11-15T07:51:25;100700.91;;;12.56;93.33
68871;BME280;55906;52.278;6.808;2022-11-15T07:53:52;100694.84;;;12.61;92.51
68871;BME280;55906;52.278;6.808;2022-11-15T07:56:19;100700.06;;;12.58;93.27
68871;BME280;55906;52.278;6.808;2022-11-15T07:58:46;100700.19;;;12.66;92.58
68871;BME280;55906;52.278;6.808;2022-11-15T08:01:12;100696.63;;;12.62;92.94
68871;BME280;55906;52.278;6.808;2022-11-15T08:03:39;100696.72;;;12.68;92.27
68871;BME280;55906;52.278;6.808;2022-11-15T08:06:07;100706.47;;;12.74;92.44
68871;BME280;55906;52.278;6.808;2022-11-15T08:08:34;100707.41;;;12.77;92.35
68871;BME280;55906;52.278;6.808;2022-11-15T08:11:00;100705.66;;;12.79;92.61
68871;BME280;55906;52.278;6.808;2022-11-15T08:13:27;100693.38;;;12.81;92.43
68871;BME280;55906;52.278;6.808;2022-11-15T08:15:57;100690.88;;;12.92;91.87
68871;BME280;55906;52.278;6.808;2022-11-15T08:18:24;100682.94;;;12.92;91.70
68871;BME280;55906;52.278;6.808;2022-11-15T08:20:50;100682.03;;;12.90;91.87
68871;BME280;55906;52.278;6.808;2022-11-15T08:23:19;100685.63;;;12.95;91.68
68871;BME280;55906;52.278;6.808;2022-11-15T08:25:45;100683.03;;;12.98;91.44
68871;BME280;55906;52.278;6.808;2022-11-15T08:28:12;100688.28;;;12.95;91.69
68871;BME280;55906;52.278;6.808;2022-11-15T08:30:39;100683.00;;;12.97;91.34
68871;BME280;55906;52.278;6.808;2022-11-15T08:33:10;100679.44;;;12.92;91.14
68871;BME280;55906;52.278;6.808;2022-11-15T08:35:37;100690.91;;;12.95;90.95
68871;BME280;55906;52.278;6.808;2022-11-15T08:38:04;100686.53;;;12.97;90.96
68871;BME280;55906;52.278;6.808;2022-11-15T08:40:32;100682.09;;;12.95;91.13
68871;BME280;55906;52.278;6.808;2022-11-15T08:42:59;100674.09;;;12.89;91.53
68871;BME280;55906;52.278;6.808;2022-11-15T08:45:27;100669.63;;;12.81;92.23
68871;BME280;55906;52.278;6.808;2022-11-15T08:47:54;100667.94;;;12.88;91.28
68871;BME280;55906;52.278;6.808;2022-11-15T08:50:21;100671.47;;;12.89;91.52
68871;BME280;55906;52.278;6.808;2022-11-15T08:52:49;100670.63;;;12.91;91.47
68871;BME280;55906;52.278;6.808;2022-11-15T08:55:15;100661.78;;;12.88;92.05
68871;BME280;55906;52.278;6.808;2022-11-15T08:57:44;100660.97;;;12.95;91.30
68871;BME280;55906;52.278;6.808;2022-11-15T09:00:11;100660.13;;;12.97;91.38
68871;BME280;55906;52.278;6.808;2022-11-15T09:02:38;100661.88;;;12.97;91.00
68871;BME280;55906;52.278;6.808;2022-11-15T09:05:06;100665.41;;;12.96;91.36
68871;BME280;55906;52.278;6.808;2022-11-15T09:07:33;100664.50;;;12.94;91.25
68871;BME280;55906;52.278;6.808;2022-11-15T09:10:00;100662.75;;;12.94;91.23
68871;BME280;55906;52.278;6.808;2022-11-15T09:12:27;100667.16;;;12.97;91.12
68871;BME280;55906;52.278;6.808;2022-11-15T09:14:55;100668.06;;;12.99;91.00
68871;BME280;55906;52.278;6.808;2022-11-15T09:17:22;100662.78;;;12.97;91.74
68871;BME280;55906;52.278;6.808;2022-11-15T09:19:48;100661.88;;;12.97;91.65
68871;BME280;55906;52.278;6.808;2022-11-15T09:22:15;100662.75;;;12.94;91.55
68871;BME280;55906;52.278;6.808;2022-11-15T09:24:41;100658.25;;;12.89;90.70
68871;BME280;55906;52.278;6.808;2022-11-15T09:27:08;100657.44;;;12.93;90.66
68871;BME280;55906;52.278;6.808;2022-11-15T09:29:34;100660.00;;;12.87;90.53
68871;BME280;55906;52.278;6.808;2022-11-15T09:32:03;100652.97;;;12.87;89.86
68871;BME280;55906;52.278;6.808;2022-11-15T09:34:29;100653.81;;;12.85;89.37
68871;BME280;55906;52.278;6.808;2022-11-15T09:36:56;100662.63;;;12.87;89.33
68871;BME280;55906;52.278;6.808;2022-11-15T09:39:23;100664.41;;;12.86;89.64
68871;BME280;55906;52.278;6.808;2022-11-15T09:41:59;100665.28;;;12.87;89.01
68871;BME280;55906;52.278;6.808;2022-11-15T09:44:55;100668.88;;;12.92;88.61
68871;BME280;55906;52.278;6.808;2022-11-15T09:47:41;100669.84;;;12.98;88.51
68871;BME280;55906;52.278;6.808;2022-11-15T09:50:26;100676.06;;;13.00;86.34
68871;BME280;55906;52.278;6.808;2022-11-15T09:52:55;100675.56;;;13.29;86.34
68871;BME280;55906;52.278;6.808;2022-11-15T09:55:28;100675.91;;;13.62;84.28
68871;BME280;55906;52.278;6.808;2022-11-15T09:58:03;100674.22;;;13.69;83.04
68871;BME280;55906;52.278;6.808;2022-11-15T10:00:40;100673.44;;;13.79;82.15
68871;BME280;55906;52.278;6.808;2022-11-15T10:03:12;100665.56;;;13.85;81.20
68871;BME280;55906;52.278;6.808;2022-11-15T10:05:42;100667.34;;;13.86;81.29
68871;BME280;55906;52.278;6.808;2022-11-15T10:08:20;100663.81;;;13.86;80.22
68871;BME280;55906;52.278;6.808;2022-11-15T10:10:56;100660.31;;;13.90;80.55
68871;BME280;55906;52.278;6.808;2022-11-15T10:13:25;100655.84;;;13.81;79.97
68871;BME280;55906;52.278;6.808;2022-11-15T10:15:54;100657.56;;;13.79;79.82
68871;BME280;55906;52.278;6.808;2022-11-15T10:18:27;100661.88;;;13.68;79.79
68871;BME280;55906;52.278;6.808;2022-11-15T10:21:02;100662.78;;;13.70;79.20
68871;BME280;55906;52.278;6.808;2022-11-15T10:23:35;100655.75;;;13.72;79.14
68871;BME280;55906;52.278;6.808;2022-11-15T10:26:08;100654.03;;;13.77;78.91
68871;BME280;55906;52.278;6.808;2022-11-15T10:28:37;100653.28;;;13.92;78.89
68871;BME280;55906;52.278;6.808;2022-11-15T10:31:21;100648.03;;;13.98;78.93
68871;BME280;55906;52.278;6.808;2022-11-15T10:33:51;100644.53;;;14.00;78.54
68871;BME280;55906;52.278;6.808;2022-11-15T10:36:20;100652.47;;;14.00;78.25
68871;BME280;55906;52.278;6.808;2022-11-15T10:38:54;100641.91;;;14.03;78.47
68871;BME280;55906;52.278;6.808;2022-11-15T10:41:27;100643.78;;;14.17;78.29
68871;BME280;55906;52.278;6.808;2022-11-15T10:44:20;100630.97;;;14.73;76.12
68871;BME280;55906;52.278;6.808;2022-11-15T10:46:50;100620.72;;;15.64;71.88
68871;BME280;55906;52.278;6.808;2022-11-15T10:49:31;100613.56;;;16.47;68.30
68871;BME280;55906;52.278;6.808;2022-11-15T10:52:01;100602.75;;;17.13;67.15
68871;BME280;55906;52.278;6.808;2022-11-15T10:54:33;100599.66;;;17.81;62.74
68871;BME280;55906;52.278;6.808;2022-11-15T10:57:06;100593.59;;;18.59;61.17
68871;BME280;55906;52.278;6.808;2022-11-15T10:59:36;100585.03;;;19.08;60.12
68871;BME280;55906;52.278;6.808;2022-11-15T11:02:27;100582.47;;;18.99;56.16
68871;BME280;55906;52.278;6.808;2022-11-15T11:04:56;100585.81;;;19.14;56.87
68871;BME280;55906;52.278;6.808;2022-11-15T11:07:24;100577.75;;;19.80;55.14
68871;BME280;55906;52.278;6.808;2022-11-15T11:09:57;100578.28;;;20.02;52.09
68871;BME280;55906;52.278;6.808;2022-11-15T11:12:28;100569.41;;;20.50;52.83
68871;BME280;55906;52.278;6.808;2022-11-15T11:14:57;100575.84;;;20.39;51.92
68871;BME280;55906;52.278;6.808;2022-11-15T11:17:32;100569.31;;;20.99;50.31
68871;BME280;55906;52.278;6.808;2022-11-15T11:20:09;100576.44;;;21.40;49.31
68871;BME280;55906;52.278;6.808;2022-11-15T11:22:45;100575.13;;;21.18;48.53
68871;BME280;55906;52.278;6.808;2022-11-15T11:25:20;100570.91;;;21.07;47.61
68871;BME280;55906;52.278;6.808;2022-11-15T11:27:59;100564.72;;;21.04;48.46
68871;BME280;55906;52.278;6.808;2022-11-15T11:30:40;100570.34;;;20.92;47.40
68871;BME280;55906;52.278;6.808;2022-11-15T11:33:13;100563.91;;;21.00;45.84
68871;BME280;55906;52.278;6.808;2022-11-15T11:35:50;100553.53;;;20.87;46.66
68871;BME280;55906;52.278;6.808;2022-11-15T11:38:39;100561.44;;;20.47;46.91
68871;BME280;55906;52.278;6.808;2022-11-15T11:41:16;100554.69;;;19.76;49.04
68871;BME280;55906;52.278;6.808;2022-11-15T11:43:53;100549.00;;;19.96;47.92
68871;BME280;55906;52.278;6.808;2022-11-15T11:46:47;100546.22;;;20.02;47.65
68871;BME280;55906;52.278;6.808;2022-11-15T11:49:18;100553.31;;;19.48;47.99
68871;BME280;55906;52.278;6.808;2022-11-15T11:51:51;100545.88;;;19.71;47.81
68871;BME280;55906;52.278;6.808;2022-11-15T11:54:23;100538.53;;;19.84;47.31
68871;BME280;55906;52.278;6.808;2022-11-15T11:56:52;100544.28;;;19.60;47.44
68871;BME280;55906;52.278;6.808;2022-11-15T11:59:30;100538.78;;;19.70;48.05
68871;BME280;55906;52.278;6.808;2022-11-15T12:02:01;100536.63;;;19.91;47.07
68871;BME280;55906;52.278;6.808;2022-11-15T12:04:37;100529.53;;;20.37;47.42
68871;BME280;55906;52.278;6.808;2022-11-15T12:07:11;100526.81;;;20.40;46.14
68871;BME280;55906;52.278;6.808;2022-11-15T12:09:43;100530.75;;;20.66;46.31
68871;BME280;55906;52.278;6.808;2022-11-15T12:12:13;100521.16;;;20.56;46.03
68871;BME280;55906;52.278;6.808;2022-11-15T12:14:49;100513.03;;;21.03;44.93
68871;BME280;55906;52.278;6.808;2022-11-15T12:17:21;100522.31;;;21.27;45.06
68871;BME280;55906;52.278;6.808;2022-11-15T12:19:49;100520.44;;;21.31;44.28
68871;BME280;55906;52.278;6.808;2022-11-15T12:22:20;100519.75;;;21.23;44.28
68871;BME280;55906;52.278;6.808;2022-11-15T12:24:53;100522.41;;;21.21;44.58
68871;BME280;55906;52.278;6.808;2022-11-15T12:27:29;100510.84;;;21.58;43.96
68871;BME280;55906;52.278;6.808;2022-11-15T12:30:00;100512.84;;;21.84;43.38
68871;BME280;55906;52.278;6.808;2022-11-15T12:32:30;100512.44;;;21.99;42.80
68871;BME280;55906;52.278;6.808;2022-11-15T12:34:59;100502.50;;;22.38;43.14
68871;BME280;55906;52.278;6.808;2022-11-15T12:37:47;100506.69;;;22.78;41.32
68871;BME280;55906;52.278;6.808;2022-11-15T12:40:39;100498.28;;;22.29;41.50
68871;BME280;55906;52.278;6.808;2022-11-15T12:43:40;100500.59;;;22.09;41.67
68871;BME280;55906;52.278;6.808;2022-11-15T12:46:13;100502.75;;;21.95;41.70
68871;BME280;55906;52.278;6.808;2022-11-15T12:48:51;100513.50;;;21.59;42.80
68871;BME280;55906;52.278;6.808;2022-11-15T12:51:20;100511.47;;;20.93;43.72
68871;BME280;55906;52.278;6.808;2022-11-15T12:53:49;100495.19;;;20.62;44.58
68871;BME280;55906;52.278;6.808;2022-11-15T12:56:21;100499.13;;;20.44;44.74
68871;BME280;55906;52.278;6.808;2022-11-15T12:58:51;100488.81;;;20.68;44.91
68871;BME280;55906;52.278;6.808;2022-11-15T13:01:56;100487.19;;;21.02;44.19
68871;BME280;55906;52.278;6.808;2022-11-15T13:04:26;100473.00;;;21.37;43.51
68871;BME280;55906;52.278;6.808;2022-11-15T13:06:54;100461.47;;;21.69;42.75